createdAt,value
2023-03-28T00:01:00.725Z,93.21
2023-03-28T00:03:29.447Z,93.83
2023-03-28T00:05:58.123Z,93.43
2023-03-28T00:08:25.036Z,94.25
2023-03-28T00:10:51.431Z,94.00
2023-03-28T00:13:19.751Z,94.32
2023-03-28T00:15:46.795Z,94.79
2023-03-28T00:18:14.338Z,94.31
2023-03-28T00:20:45.212Z,94.11
2023-03-28T00:23:12.725Z,94.03
2023-03-28T00:25:41.582Z,94.42
2023-03-28T00:28:08.120Z,94.68
2023-03-28T00:30:34.503Z,94.94
2023-03-28T00:33:01.033Z,95.11
2023-03-28T00:35:27.565Z,95.60
2023-03-28T00:37:57.935Z,95.91
2023-03-28T00:40:26.659Z,96.67
2023-03-28T00:42:54.100Z,96.66
2023-03-28T00:45:23.941Z,96.89
2023-03-28T00:48:06.605Z,97.46
2023-03-28T00:50:46.729Z,97.44
2023-03-28T00:53:21.477Z,97.95
2023-03-28T00:55:52.534Z,98.33
2023-03-28T00:58:23.820Z,98.82
2023-03-28T01:00:54.718Z,99.44
2023-03-28T01:03:27.454Z,99.52
2023-03-28T01:05:56.537Z,99.33
2023-03-28T01:08:33.780Z,98.93
2023-03-28T01:11:00.731Z,99.25
2023-03-28T01:13:33.658Z,99.24
2023-03-28T01:16:03.000Z,99.16
2023-03-28T01:18:34.812Z,98.83
2023-03-28T01:21:19.139Z,99.22
2023-03-28T01:24:10.913Z,99.75
2023-03-28T01:27:13.314Z,99.90
2023-03-28T01:30:08.099Z,99.92
2023-03-28T01:33:16.563Z,99.88
2023-03-28T01:36:04.975Z,99.78
2023-03-28T01:39:09.920Z,100.00
2023-03-28T01:42:04.532Z,99.88
2023-03-28T01:44:44.478Z,100.00
2023-03-28T01:47:18.474Z,100.00
2023-03-28T01:50:03.272Z,100.00
2023-03-28T01:52:51.720Z,100.00
2023-03-28T01:55:23.442Z,100.00
2023-03-28T01:58:14.031Z,100.00
2023-03-28T02:00:54.858Z,100.00
2023-03-28T02:03:31.718Z,100.00
2023-03-28T02:06:07.203Z,100.00
2023-03-28T02:08:37.909Z,100.00
2023-03-28T02:11:16.690Z,100.00
2023-03-28T02:14:01.391Z,100.00
2023-03-28T02:16:50.459Z,100.00
2023-03-28T02:19:38.586Z,100.00
2023-03-28T02:22:33.818Z,100.00
2023-03-28T02:25:31.751Z,100.00
2023-03-28T02:28:22.751Z,100.00
2023-03-28T02:31:08.989Z,100.00
2023-03-28T02:33:41.083Z,100.00
2023-03-28T02:36:19.516Z,100.00
2023-03-28T02:39:23.731Z,100.00
2023-03-28T02:42:05.394Z,100.00
2023-03-28T02:45:00.192Z,100.00
2023-03-28T02:47:55.134Z,100.00
2023-03-28T02:50:45.538Z,100.00
2023-03-28T02:53:26.988Z,100.00
2023-03-28T02:56:10.309Z,100.00
2023-03-28T02:59:12.811Z,100.00
2023-03-28T03:01:41.517Z,100.00
2023-03-28T03:04:08.032Z,100.00
2023-03-28T03:06:35.188Z,100.00
2023-03-28T03:09:01.945Z,100.00
2023-03-28T03:11:28.753Z,100.00
2023-03-28T03:13:57.096Z,100.00
2023-03-28T03:16:23.782Z,100.00
2023-03-28T03:18:50.880Z,100.00
2023-03-28T03:21:17.825Z,100.00
2023-03-28T03:23:44.212Z,100.00
2023-03-28T03:26:10.780Z,100.00
2023-03-28T03:28:44.447Z,100.00
2023-03-28T03:31:10.975Z,100.00
2023-03-28T03:34:16.144Z,100.00
2023-03-28T03:36:49.961Z,100.00
2023-03-28T03:39:16.561Z,100.00
2023-03-28T03:41:43.038Z,100.00
2023-03-28T03:44:09.453Z,100.00
2023-03-28T03:46:36.570Z,100.00
2023-03-28T03:49:03.550Z,100.00
2023-03-28T03:51:30.103Z,100.00
2023-03-28T03:53:58.221Z,100.00
2023-03-28T03:56:32.956Z,100.00
2023-03-28T03:59:00.704Z,100.00
2023-03-28T04:01:30.368Z,100.00
2023-03-28T04:04:09.079Z,100.00
2023-03-28T04:06:58.929Z,100.00
2023-03-28T04:09:29.163Z,100.00
2023-03-28T04:11:59.918Z,100.00
2023-03-28T04:14:27.145Z,100.00
2023-03-28T04:17:13.726Z,100.00
2023-03-28T04:19:41.600Z,100.00
2023-03-28T04:22:08.174Z,100.00
2023-03-28T04:24:37.459Z,100.00
2023-03-28T04:27:17.541Z,100.00
2023-03-28T04:29:46.500Z,100.00
2023-03-28T04:32:37.603Z,100.00
2023-03-28T04:35:08.711Z,100.00
2023-03-28T04:37:37.748Z,100.00
2023-03-28T04:40:11.938Z,100.00
2023-03-28T04:42:50.997Z,100.00
2023-03-28T04:45:26.266Z,100.00
2023-03-28T04:47:53.723Z,100.00
2023-03-28T04:50:22.200Z,100.00
2023-03-28T04:52:49.345Z,100.00
2023-03-28T04:55:16.808Z,100.00
2023-03-28T04:57:44.663Z,100.00
2023-03-28T05:00:13.041Z,100.00
2023-03-28T05:03:14.429Z,100.00
2023-03-28T05:06:01.446Z,100.00
2023-03-28T05:08:27.993Z,100.00
2023-03-28T05:10:55.305Z,100.00
2023-03-28T05:13:22.225Z,100.00
2023-03-28T05:16:01.225Z,100.00
2023-03-28T05:18:51.257Z,100.00
2023-03-28T05:21:23.314Z,100.00
2023-03-28T05:23:52.145Z,100.00
2023-03-28T05:26:22.996Z,100.00
2023-03-28T05:28:49.644Z,100.00
2023-03-28T05:31:17.272Z,100.00
2023-03-28T05:33:48.566Z,100.00
2023-03-28T05:36:24.424Z,100.00
2023-03-28T05:38:51.745Z,100.00
2023-03-28T05:41:20.864Z,100.00
2023-03-28T05:43:47.224Z,100.00
2023-03-28T05:46:23.924Z,100.00
2023-03-28T05:48:50.395Z,100.00
2023-03-28T05:51:17.989Z,100.00
2023-03-28T05:53:44.762Z,100.00
2023-03-28T05:56:11.180Z,100.00
2023-03-28T05:58:40.109Z,100.00
2023-03-28T06:01:06.926Z,100.00
2023-03-28T06:03:33.489Z,100.00
2023-03-28T06:06:06.448Z,100.00
2023-03-28T06:08:32.876Z,100.00
2023-03-28T06:11:03.816Z,100.00
2023-03-28T06:13:45.787Z,100.00
2023-03-28T06:16:13.888Z,100.00
2023-03-28T06:18:40.442Z,100.00
2023-03-28T06:21:07.134Z,100.00
2023-03-28T06:23:33.674Z,100.00
2023-03-28T06:26:02.345Z,100.00
2023-03-28T06:28:36.048Z,100.00
2023-03-28T06:31:22.882Z,100.00
2023-03-28T06:33:49.659Z,100.00
2023-03-28T06:36:19.121Z,100.00
2023-03-28T06:38:46.558Z,100.00
2023-03-28T06:41:13.229Z,100.00
2023-03-28T06:43:41.420Z,100.00
2023-03-28T06:46:21.561Z,100.00
2023-03-28T06:48:48.330Z,100.00
2023-03-28T06:51:24.020Z,100.00
2023-03-28T06:53:50.625Z,100.00
2023-03-28T06:56:22.182Z,100.00
2023-03-28T06:58:48.672Z,100.00
2023-03-28T07:01:18.035Z,100.00
2023-03-28T07:03:52.665Z,100.00
2023-03-28T07:06:22.703Z,100.00
2023-03-28T07:08:49.322Z,100.00
2023-03-28T07:11:19.660Z,100.00
2023-03-28T07:13:49.328Z,100.00
2023-03-28T07:16:16.626Z,100.00
2023-03-28T07:18:43.958Z,100.00
2023-03-28T07:21:20.885Z,100.00
2023-03-28T07:23:47.597Z,100.00
2023-03-28T07:26:18.113Z,100.00
2023-03-28T07:28:45.464Z,100.00
2023-03-28T07:31:12.207Z,100.00
2023-03-28T07:33:39.266Z,100.00
2023-03-28T07:36:13.595Z,100.00
2023-03-28T07:38:41.017Z,99.99
2023-03-28T07:41:08.021Z,98.63
2023-03-28T07:43:35.167Z,99.16
2023-03-28T07:46:06.352Z,98.78
2023-03-28T07:48:33.061Z,98.21
2023-03-28T07:51:01.669Z,98.12
2023-03-28T07:53:28.723Z,97.52
2023-03-28T07:55:56.443Z,97.82
2023-03-28T07:58:30.438Z,97.81
2023-03-28T08:01:06.501Z,97.00
2023-03-28T08:03:36.724Z,96.91
2023-03-28T08:06:16.544Z,96.56
2023-03-28T08:08:47.127Z,96.21
2023-03-28T08:11:49.554Z,95.07
2023-03-28T08:14:17.686Z,94.70
2023-03-28T08:16:45.608Z,94.93
2023-03-28T08:19:12.614Z,95.28
2023-03-28T08:22:17.521Z,94.75
2023-03-28T08:24:53.670Z,94.46
2023-03-28T08:27:22.745Z,93.60
2023-03-28T08:29:53.141Z,93.77
2023-03-28T08:32:19.839Z,93.70
2023-03-28T08:34:46.946Z,93.14
2023-03-28T08:37:16.750Z,91.65
2023-03-28T08:39:47.402Z,92.44
2023-03-28T08:42:29.126Z,92.45
2023-03-28T08:44:59.697Z,91.80
2023-03-28T08:47:31.690Z,91.98
2023-03-28T08:50:14.327Z,91.23
2023-03-28T08:52:41.960Z,91.40
2023-03-28T08:55:29.264Z,89.52
2023-03-28T08:57:56.507Z,88.18
2023-03-28T09:00:27.796Z,88.60
2023-03-28T09:02:55.519Z,88.56
2023-03-28T09:05:32.034Z,86.19
2023-03-28T09:08:24.047Z,84.66
2023-03-28T09:10:56.719Z,84.40
2023-03-28T09:13:42.457Z,84.33
2023-03-28T09:16:33.905Z,80.81
2023-03-28T09:19:45.305Z,78.69
2023-03-28T09:23:20.891Z,78.15
2023-03-28T09:26:22.135Z,75.36
2023-03-28T09:29:06.107Z,75.25
2023-03-28T09:31:47.103Z,74.44
2023-03-28T09:34:23.616Z,70.55
2023-03-28T09:36:55.539Z,68.96
2023-03-28T09:39:40.199Z,67.62
2023-03-28T09:42:15.144Z,65.58
2023-03-28T09:44:55.013Z,66.15
2023-03-28T09:47:43.524Z,65.71
2023-03-28T09:50:15.583Z,66.91
2023-03-28T09:52:48.463Z,67.48
2023-03-28T09:55:21.360Z,66.93
2023-03-28T09:58:08.243Z,66.50
2023-03-28T10:01:22.932Z,63.46
2023-03-28T10:04:31.238Z,60.09
2023-03-28T10:07:43.822Z,57.74
2023-03-28T10:10:30.703Z,57.60
2023-03-28T10:13:04.859Z,56.99
2023-03-28T10:15:47.913Z,51.12
2023-03-28T10:18:19.364Z,50.48
2023-03-28T10:20:51.431Z,53.01
2023-03-28T10:23:22.410Z,55.84
2023-03-28T10:25:54.131Z,54.30
2023-03-28T10:28:30.432Z,54.04
2023-03-28T10:31:00.834Z,55.67
2023-03-28T10:33:36.865Z,56.43
2023-03-28T10:36:37.363Z,54.69
2023-03-28T10:39:23.261Z,52.17
2023-03-28T10:42:12.757Z,48.55
2023-03-28T10:44:58.963Z,49.33
2023-03-28T10:47:25.902Z,49.72
2023-03-28T10:49:56.754Z,48.99
2023-03-28T10:52:53.248Z,62.08
2023-03-28T10:55:31.600Z,55.81
2023-03-28T10:58:32.929Z,49.08
2023-03-28T11:01:18.171Z,50.23
2023-03-28T11:04:08.036Z,48.65
2023-03-28T11:06:37.538Z,48.76
2023-03-28T11:09:30.653Z,48.65
2023-03-28T11:12:29.188Z,48.82
2023-03-28T11:15:10.720Z,47.03
2023-03-28T11:18:10.217Z,47.65
2023-03-28T11:20:52.048Z,46.06
2023-03-28T11:23:28.613Z,44.03
2023-03-28T11:26:25.667Z,45.09
2023-03-28T11:29:24.214Z,44.84
2023-03-28T11:32:13.334Z,41.99
2023-03-28T11:35:05.320Z,41.59
2023-03-28T11:37:34.916Z,42.87
2023-03-28T11:40:16.216Z,45.79
2023-03-28T11:42:57.198Z,40.94
2023-03-28T11:45:42.046Z,42.14
2023-03-28T11:48:29.382Z,40.74
2023-03-28T11:51:28.948Z,41.02
2023-03-28T11:54:22.099Z,39.62
2023-03-28T11:57:14.092Z,39.44
2023-03-28T12:00:23.026Z,39.32
2023-03-28T12:03:33.421Z,40.45
2023-03-28T12:06:19.455Z,41.99
2023-03-28T12:09:12.864Z,41.85
2023-03-28T12:11:50.129Z,41.09
2023-03-28T12:14:42.747Z,41.21
2023-03-28T12:17:26.883Z,43.31
2023-03-28T12:19:54.277Z,41.93
2023-03-28T12:22:30.165Z,41.68
2023-03-28T12:25:06.086Z,41.04
2023-03-28T12:27:50.672Z,38.80
2023-03-28T12:30:32.344Z,35.53
2023-03-28T12:33:11.746Z,34.48
2023-03-28T12:35:51.734Z,34.61
2023-03-28T12:38:48.096Z,33.65
2023-03-28T12:41:31.742Z,34.16
2023-03-28T12:44:03.835Z,33.44
2023-03-28T12:46:46.065Z,33.29
2023-03-28T12:49:21.216Z,33.53
2023-03-28T12:51:53.290Z,33.91
2023-03-28T12:54:25.848Z,33.19
2023-03-28T12:57:04.024Z,33.63
2023-03-28T12:59:38.782Z,33.98
2023-03-28T13:02:30.706Z,34.61
2023-03-28T13:05:26.616Z,33.54
2023-03-28T13:08:16.762Z,33.91
2023-03-28T13:11:25.114Z,33.60
2023-03-28T13:14:19.090Z,34.00
2023-03-28T13:16:45.451Z,34.88
2023-03-28T13:19:16.431Z,34.94
2023-03-28T13:21:55.595Z,34.43
2023-03-28T13:24:30.189Z,34.35
2023-03-28T13:27:14.636Z,33.85
2023-03-28T13:29:59.478Z,34.04
2023-03-28T13:32:26.372Z,34.25
2023-03-28T13:34:56.506Z,33.61
2023-03-28T13:37:46.056Z,34.17
2023-03-28T13:40:40.447Z,34.13
2023-03-28T13:43:23.589Z,34.33
2023-03-28T13:45:54.243Z,34.26
2023-03-28T13:48:25.018Z,34.30
2023-03-28T13:50:53.318Z,35.17
2023-03-28T13:53:19.805Z,35.24
2023-03-28T13:55:46.782Z,34.51
2023-03-28T13:58:13.524Z,34.84
2023-03-28T14:00:40.803Z,36.05
2023-03-28T14:03:15.012Z,34.94
2023-03-28T14:05:45.691Z,35.71
2023-03-28T14:08:15.096Z,34.97
2023-03-28T14:10:43.521Z,35.13
2023-03-28T14:13:16.967Z,33.67
2023-03-28T14:15:44.349Z,32.57
2023-03-28T14:18:16.647Z,32.43
2023-03-28T14:20:45.518Z,32.43
2023-03-28T14:23:34.975Z,32.86
2023-03-28T14:26:02.704Z,31.95
2023-03-28T14:28:30.614Z,31.88
2023-03-28T14:30:58.293Z,32.32
2023-03-28T14:33:25.349Z,31.65
2023-03-28T14:36:03.554Z,31.06
2023-03-28T14:38:33.584Z,30.55
2023-03-28T14:41:08.962Z,30.81
2023-03-28T14:43:36.539Z,30.62
2023-03-28T14:46:07.098Z,30.23
2023-03-28T14:48:36.717Z,31.08
2023-03-28T14:51:05.637Z,31.62
2023-03-28T14:53:40.373Z,30.60
2023-03-28T14:56:10.966Z,31.34
2023-03-28T14:58:40.532Z,31.93
2023-03-28T15:01:11.067Z,32.53
2023-03-28T15:03:43.590Z,31.71
2023-03-28T15:06:18.476Z,30.51
2023-03-28T15:08:45.515Z,30.45
2023-03-28T15:11:35.242Z,31.08
2023-03-28T15:14:15.974Z,30.98
2023-03-28T15:16:45.496Z,30.83
2023-03-28T15:19:27.013Z,31.29
2023-03-28T15:21:57.414Z,31.69
2023-03-28T15:24:26.419Z,31.43
2023-03-28T15:26:57.722Z,31.57
2023-03-28T15:29:25.637Z,31.37
2023-03-28T15:31:56.566Z,31.71
2023-03-28T15:34:27.320Z,32.20
2023-03-28T15:37:02.498Z,32.69
2023-03-28T15:39:34.552Z,32.60
2023-03-28T15:42:20.186Z,32.98
2023-03-28T15:44:58.738Z,33.50
2023-03-28T15:47:31.107Z,33.15
2023-03-28T15:50:04.693Z,33.61
2023-03-28T15:52:31.796Z,33.42
2023-03-28T15:55:00.916Z,33.74
2023-03-28T15:57:30.094Z,33.91
2023-03-28T15:59:58.243Z,35.03
2023-03-28T16:02:24.685Z,34.18
2023-03-28T16:05:09.218Z,34.71
2023-03-28T16:07:55.868Z,34.69
2023-03-28T16:10:25.458Z,35.33
2023-03-28T16:13:14.369Z,35.27
2023-03-28T16:16:26.222Z,35.77
2023-03-28T16:19:21.563Z,35.54
2023-03-28T16:21:48.514Z,35.60
2023-03-28T16:24:15.021Z,35.39
2023-03-28T16:26:41.629Z,35.89
2023-03-28T16:29:08.088Z,36.59
2023-03-28T16:31:34.532Z,36.30
2023-03-28T16:34:00.971Z,36.55
2023-03-28T16:36:27.508Z,35.47
2023-03-28T16:38:54.075Z,36.03
2023-03-28T16:41:20.495Z,35.95
2023-03-28T16:43:47.017Z,36.02
2023-03-28T16:46:13.551Z,36.51
2023-03-28T16:48:39.985Z,36.97
2023-03-28T16:51:06.682Z,37.90
2023-03-28T16:53:34.723Z,39.44
2023-03-28T16:56:01.374Z,38.39
2023-03-28T16:58:29.691Z,38.67
2023-03-28T17:00:56.685Z,38.68
2023-03-28T17:03:23.507Z,38.46
2023-03-28T17:05:50.177Z,38.81
2023-03-28T17:08:16.796Z,39.00
2023-03-28T17:10:43.726Z,38.67
2023-03-28T17:13:10.617Z,38.13
2023-03-28T17:15:37.074Z,38.17
2023-03-28T17:18:05.621Z,39.88
2023-03-28T17:20:32.487Z,39.34
2023-03-28T17:22:58.911Z,39.12
2023-03-28T17:25:25.607Z,38.87
2023-03-28T17:27:52.001Z,38.72
2023-03-28T17:30:18.649Z,38.46
2023-03-28T17:32:45.466Z,39.24
2023-03-28T17:35:12.158Z,39.12
2023-03-28T17:37:39.297Z,39.67
2023-03-28T17:40:06.804Z,39.77
2023-03-28T17:42:33.330Z,39.81
2023-03-28T17:44:59.818Z,40.29
2023-03-28T17:47:26.223Z,41.23
2023-03-28T17:49:55.705Z,41.81
2023-03-28T17:52:22.448Z,41.81
2023-03-28T17:54:51.337Z,41.91
2023-03-28T17:57:18.401Z,41.87
2023-03-28T17:59:44.984Z,42.34
2023-03-28T18:02:11.667Z,42.89
2023-03-28T18:04:38.093Z,42.37
2023-03-28T18:07:17.818Z,43.10
2023-03-28T18:09:44.696Z,43.33
2023-03-28T18:12:11.791Z,44.56
2023-03-28T18:14:38.546Z,46.68
2023-03-28T18:17:05.896Z,45.39
2023-03-28T18:19:32.392Z,45.15
2023-03-28T18:21:58.818Z,46.02
2023-03-28T18:24:26.562Z,43.99
2023-03-28T18:26:53.187Z,42.01
2023-03-28T18:29:19.784Z,42.47
2023-03-28T18:31:46.527Z,43.85
2023-03-28T18:34:12.986Z,43.57
2023-03-28T18:36:43.651Z,44.02
2023-03-28T18:39:10.392Z,43.99
2023-03-28T18:41:37.624Z,44.46
2023-03-28T18:44:05.087Z,45.43
2023-03-28T18:46:31.621Z,47.88
2023-03-28T18:49:00.067Z,46.94
2023-03-28T18:51:27.564Z,52.30
2023-03-28T18:53:54.285Z,54.99
2023-03-28T18:56:21.882Z,55.28
2023-03-28T18:58:50.205Z,58.05
2023-03-28T19:01:17.258Z,59.03
2023-03-28T19:03:44.894Z,61.45
2023-03-28T19:06:13.629Z,62.00
2023-03-28T19:08:40.312Z,61.41
2023-03-28T19:11:09.637Z,63.77
2023-03-28T19:13:36.128Z,63.94
2023-03-28T19:16:08.814Z,63.88
2023-03-28T19:18:40.342Z,63.62
2023-03-28T19:21:07.923Z,65.22
2023-03-28T19:23:36.027Z,66.19
2023-03-28T19:26:04.496Z,65.51
2023-03-28T19:28:31.243Z,66.34
2023-03-28T19:31:06.238Z,66.36
2023-03-28T19:33:33.271Z,67.67
2023-03-28T19:36:00.001Z,66.85
2023-03-28T19:38:27.224Z,68.14
2023-03-28T19:40:58.228Z,69.79
2023-03-28T19:43:25.238Z,71.50
2023-03-28T19:45:51.830Z,71.30
2023-03-28T19:48:18.382Z,72.41
2023-03-28T19:50:44.809Z,72.79
2023-03-28T19:53:11.321Z,75.09
2023-03-28T19:55:37.722Z,76.50
2023-03-28T19:58:07.218Z,77.57
2023-03-28T20:00:33.688Z,77.95
2023-03-28T20:03:00.783Z,80.12
2023-03-28T20:05:27.707Z,80.13
2023-03-28T20:07:54.085Z,81.16
2023-03-28T20:10:20.638Z,82.67
2023-03-28T20:12:47.106Z,83.50
2023-03-28T20:15:13.486Z,83.20
2023-03-28T20:17:39.979Z,83.10
2023-03-28T20:20:08.070Z,84.38
2023-03-28T20:22:35.266Z,84.58
2023-03-28T20:25:01.774Z,85.95
2023-03-28T20:27:29.029Z,86.95
2023-03-28T20:29:55.929Z,87.24
2023-03-28T20:32:22.432Z,87.32
2023-03-28T20:34:48.907Z,88.88
2023-03-28T20:37:15.319Z,90.83
2023-03-28T20:39:41.760Z,91.41
2023-03-28T20:42:08.879Z,91.92
2023-03-28T20:44:38.088Z,91.80
2023-03-28T20:47:10.554Z,91.88
2023-03-28T20:49:38.260Z,91.71
2023-03-28T20:52:07.658Z,92.21
2023-03-28T20:54:34.094Z,92.66
2023-03-28T20:57:00.545Z,93.80
2023-03-28T20:59:27.149Z,93.72
2023-03-28T21:01:54.485Z,94.11
2023-03-28T21:04:21.997Z,93.60
2023-03-28T21:06:49.832Z,93.59
2023-03-28T21:09:17.708Z,93.52
2023-03-28T21:11:44.190Z,93.69
2023-03-28T21:14:13.517Z,93.21
2023-03-28T21:16:40.799Z,93.48
2023-03-28T21:19:08.109Z,93.14
2023-03-28T21:21:35.020Z,93.07
2023-03-28T21:24:02.440Z,93.01
2023-03-28T21:26:29.154Z,91.70
2023-03-28T21:28:55.863Z,92.23
2023-03-28T21:31:25.343Z,92.24
2023-03-28T21:33:53.762Z,91.60
2023-03-28T21:36:20.924Z,91.92
2023-03-28T21:38:48.496Z,92.83
2023-03-28T21:41:15.419Z,92.98
2023-03-28T21:43:42.123Z,92.26
2023-03-28T21:46:11.198Z,92.43
2023-03-28T21:48:38.287Z,92.23
2023-03-28T21:51:05.155Z,92.21
2023-03-28T21:53:34.668Z,92.53
2023-03-28T21:56:01.136Z,92.69
2023-03-28T21:58:29.712Z,92.65
2023-03-28T22:00:56.295Z,92.82
2023-03-28T22:03:23.471Z,93.12
2023-03-28T22:05:52.126Z,93.74
2023-03-28T22:08:19.558Z,94.47
2023-03-28T22:10:49.067Z,93.69
2023-03-28T22:13:16.009Z,93.65
2023-03-28T22:15:42.839Z,93.63
2023-03-28T22:18:11.193Z,93.29
2023-03-28T22:20:40.796Z,93.36
2023-03-28T22:23:08.796Z,93.29
2023-03-28T22:25:38.272Z,93.36
2023-03-28T22:28:08.206Z,93.14
2023-03-28T22:30:35.832Z,92.76
2023-03-28T22:33:03.895Z,92.56
2023-03-28T22:35:32.178Z,92.72
2023-03-28T22:37:59.343Z,92.94
2023-03-28T22:40:26.100Z,93.02
2023-03-28T22:42:53.964Z,92.44
2023-03-28T22:45:27.174Z,92.59
2023-03-28T22:47:54.388Z,92.47
2023-03-28T22:50:22.441Z,92.62
2023-03-28T22:52:50.116Z,92.72
2023-03-28T22:55:17.461Z,93.08
2023-03-28T22:57:44.789Z,93.36
2023-03-28T23:00:13.164Z,93.29
2023-03-28T23:02:39.779Z,93.19
2023-03-28T23:05:07.774Z,92.45
2023-03-28T23:07:35.855Z,92.94
2023-03-28T23:10:04.667Z,93.48
2023-03-28T23:12:31.079Z,93.59
2023-03-28T23:14:57.536Z,92.84
2023-03-28T23:17:24.884Z,92.61
2023-03-28T23:19:52.154Z,92.50
2023-03-28T23:22:18.633Z,92.32
2023-03-28T23:24:46.804Z,92.25
2023-03-28T23:27:13.226Z,92.19
2023-03-28T23:29:39.594Z,91.78
2023-03-28T23:32:06.012Z,91.90
2023-03-28T23:34:33.328Z,91.92
2023-03-28T23:37:01.434Z,91.78
2023-03-28T23:39:28.453Z,92.53
2023-03-28T23:41:56.082Z,92.34
2023-03-28T23:44:22.890Z,92.32
2023-03-28T23:46:50.026Z,92.25
2023-03-28T23:49:17.268Z,92.21
2023-03-28T23:51:43.736Z,92.07
2023-03-28T23:54:10.388Z,92.16
2023-03-28T23:56:36.813Z,92.16
2023-03-28T23:59:03.210Z,92.32
